Time;durP1;ratioP1;P1;durP2;ratioP2;P2;SDS_P1;SDS_P2;PMS_P1;PMS_P2;Temp;Humidity;BMP_temperature;BMP_pressure;BME280_temperature;BME280_humidity;BME280_pressure;Samples;Min_cycle;Max_cycle;Signal;HPM_P1;HPM_P2
2022/12/27 00:01:20;;;;;;;4.07;0.60;;;;;;;5.32;99.03;100863.53;5071068;28;20043;-80
2022/12/27 00:03:47;;;;;;;5.70;0.88;;;;;;;5.28;98.52;100869.53;5057456;28;20025;-80
2022/12/27 00:06:15;;;;;;;5.82;0.90;;;;;;;5.33;99.39;100874.88;5074000;28;20036;-80
2022/12/27 00:08:42;;;;;;;4.63;1.00;;;;;;;5.34;99.04;100879.25;5075589;28;20119;-79
2022/12/27 00:11:10;;;;;;;5.88;0.75;;;;;;;5.33;99.95;100880.09;5075817;28;20489;-79
2022/12/27 00:13:35;;;;;;;5.68;1.02;;;;;;;5.40;99.98;100885.50;5075259;28;20056;-80
2022/12/27 00:16:02;;;;;;;6.35;1.00;;;;;;;5.44;100.00;100889.06;5084104;28;20045;-80
2022/12/27 00:18:28;;;;;;;3.65;0.73;;;;;;;5.40;100.00;100898.59;5075226;28;20081;-80
2022/12/27 00:20:58;;;;;;;2.35;0.80;;;;;;;5.45;100.00;100896.94;5075434;28;20097;-79
2022/12/27 00:23:23;;;;;;;3.70;0.90;;;;;;;5.46;100.00;100896.09;5075247;28;20036;-80
2022/12/27 00:25:48;;;;;;;7.32;1.10;;;;;;;5.42;100.00;100901.22;5075013;28;20039;-79
2022/12/27 00:28:14;;;;;;;6.75;1.15;;;;;;;5.41;100.00;100908.19;5073669;28;20036;-79
2022/12/27 00:30:40;;;;;;;5.60;0.70;;;;;;;5.41;100.00;100908.19;5075516;28;20553;-79
2022/12/27 00:33:05;;;;;;;5.78;1.13;;;;;;;5.39;100.00;100912.50;5074446;28;20044;-79
2022/12/27 00:35:30;;;;;;;5.93;0.50;;;;;;;5.41;100.00;100917.78;5082212;28;20070;-79
2022/12/27 00:37:56;;;;;;;3.05;0.60;;;;;;;5.39;100.00;100916.88;5078747;28;20044;-80
2022/12/27 00:40:21;;;;;;;6.07;1.17;;;;;;;5.39;100.00;100917.75;5079307;28;20032;-79
2022/12/27 00:42:46;;;;;;;4.80;1.23;;;;;;;5.41;100.00;100921.28;5079436;28;20032;-79
2022/12/27 00:45:11;;;;;;;3.50;0.90;;;;;;;5.42;100.00;100922.16;5078670;28;20058;-80
2022/12/27 00:47:37;;;;;;;4.00;0.85;;;;;;;5.41;100.00;100928.25;5075659;28;20036;-79
2022/12/27 00:50:03;;;;;;;5.65;0.98;;;;;;;5.41;100.00;100941.34;5076338;28;20043;-78
2022/12/27 00:52:28;;;;;;;7.50;1.00;;;;;;;5.33;99.86;100937.69;5078165;28;20036;-79
2022/12/27 00:54:54;;;;;;;7.60;1.23;;;;;;;5.33;99.67;100937.69;5086023;28;20039;-80
2022/12/27 00:57:19;;;;;;;5.07;1.02;;;;;;;5.26;99.84;100948.00;5077185;28;20108;-79
2022/12/27 00:59:46;;;;;;;7.43;1.25;;;;;;;5.26;99.32;100945.38;5078564;28;20083;-79
2022/12/27 01:02:11;;;;;;;6.15;0.95;;;;;;;5.23;99.48;100947.94;5078976;28;20040;-80
2022/12/27 01:04:37;;;;;;;8.38;1.50;;;;;;;5.19;99.72;100959.19;5069699;28;20400;-79
2022/12/27 01:07:02;;;;;;;9.35;1.05;;;;;;;5.22;99.94;100961.88;5078019;28;20506;-79
2022/12/27 01:09:27;;;;;;;9.05;1.15;;;;;;;5.19;99.47;100972.28;5077311;28;20040;-79
2022/12/27 01:11:53;;;;;;;8.30;0.77;;;;;;;5.22;99.29;100980.19;5086703;28;20032;-79
2022/12/27 01:14:18;;;;;;;7.95;1.42;;;;;;;5.22;99.70;100972.34;5078485;28;20475;-79
2022/12/27 01:16:44;;;;;;;6.80;0.93;;;;;;;5.26;99.86;100986.38;5076773;28;20128;-79
2022/12/27 01:19:09;;;;;;;4.95;0.90;;;;;;;5.23;98.78;101000.28;5078192;28;20079;-79
2022/12/27 01:21:35;;;;;;;7.50;0.98;;;;;;;5.21;98.33;101006.31;5076345;28;20028;-80
2022/12/27 01:24:00;;;;;;;7.47;1.52;;;;;;;5.22;99.20;101006.38;5059880;28;20025;-79
2022/12/27 01:26:26;;;;;;;8.10;1.05;;;;;;;5.19;96.97;101008.91;5072612;28;20058;-79
2022/12/27 01:28:52;;;;;;;9.82;1.05;;;;;;;5.19;96.95;101013.28;5076673;28;20494;-79
2022/12/27 01:31:24;;;;;;;6.40;1.00;;;;;;;5.19;96.77;101013.28;5076360;28;20071;-79
2022/12/27 01:33:54;;;;;;;6.97;1.07;;;;;;;5.16;97.11;101019.31;5076119;28;20096;-79
2022/12/27 01:36:22;;;;;;;4.63;0.95;;;;;;;5.11;97.05;101017.41;5075664;28;20505;-79
2022/12/27 01:38:47;;;;;;;4.93;0.90;;;;;;;5.10;97.09;101016.53;5083360;28;20079;-79
2022/12/27 01:44:48;;;;;;;5.95;1.50;;;;;;;5.05;97.00;101024.28;5090870;28;20055;-79
2022/12/27 01:47:41;;;;;;;5.85;0.85;;;;;;;5.08;97.48;101028.69;5072722;28;20045;-79
2022/12/27 01:50:25;;;;;;;11.00;1.00;;;;;;;5.11;97.73;101026.19;5074097;28;20029;-79
2022/12/27 01:53:32;;;;;;;7.15;1.20;;;;;;;5.08;97.42;101039.16;5070543;28;20044;-79
2022/12/27 01:56:00;;;;;;;9.57;1.02;;;;;;;5.08;97.15;101035.66;4991520;28;20039;-79
2022/12/27 01:58:34;;;;;;;7.13;1.23;;;;;;;5.07;97.70;101037.41;5061514;28;20045;-79
2022/12/27 02:01:01;;;;;;;8.18;1.70;;;;;;;5.02;97.79;101037.28;5076958;28;20040;-79
2022/12/27 02:03:42;;;;;;;8.50;1.25;;;;;;;5.02;98.08;101052.09;5075310;28;20047;-79
2022/12/27 02:06:10;;;;;;;7.82;1.13;;;;;;;4.99;97.35;101062.50;5073530;28;20648;-79
2022/12/27 02:08:55;;;;;;;5.70;1.02;;;;;;;4.95;96.32;101061.53;5075638;28;20491;-79
2022/12/27 02:11:49;;;;;;;6.65;0.73;;;;;;;4.93;96.49;101057.13;5073921;28;20028;-79
2022/12/27 02:14:11;;;;;;;6.72;0.95;;;;;;;4.91;96.25;101069.28;5074376;28;20032;-79
2022/12/27 02:16:36;;;;;;;8.25;0.90;;;;;;;4.87;96.93;101063.06;5074494;28;20094;-78
2022/12/27 02:19:07;;;;;;;7.82;1.00;;;;;;;4.86;96.00;101065.66;5076691;28;20028;-79
2022/12/27 02:21:54;;;;;;;6.15;1.20;;;;;;;4.88;95.47;101070.06;5073739;28;20064;-79
2022/12/27 02:24:54;;;;;;;7.55;1.10;;;;;;;4.84;94.99;101074.31;5071860;28;20037;-79
2022/12/27 02:27:48;;;;;;;7.50;0.88;;;;;;;4.86;95.57;101078.72;5061564;28;20048;-79
2022/12/27 02:30:14;;;;;;;6.15;1.13;;;;;;;4.84;95.44;101089.13;5074837;28;20119;-79
2022/12/27 02:32:44;;;;;;;6.78;1.10;;;;;;;4.82;94.77;101090.81;5074955;28;20067;-79
2022/12/27 02:35:20;;;;;;;8.48;0.82;;;;;;;4.79;96.49;101086.41;5072755;28;20032;-79
2022/12/27 02:37:51;;;;;;;9.68;1.20;;;;;;;4.75;95.39;101089.78;5074717;28;20040;-79
2022/12/27 02:55:13;;;;;;;7.70;0.77;;;;;;;4.19;99.09;101104.78;5075831;28;20421;-78
2022/12/27 02:57:44;;;;;;;5.60;0.90;;;;;;;4.05;99.71;101103.50;5075238;28;20054;-79
2022/12/27 03:03:22;;;;;;;4.53;0.63;;;;;;;3.86;100.00;101109.91;5072967;28;20043;-80
2022/12/27 03:18:31;;;;;;;2.42;0.70;;;;;;;3.33;100.00;101141.31;5089641;28;20046;-79
2022/12/27 03:26:34;;;;;;;8.10;1.85;;;;;;;3.21;100.00;101156.53;5087746;28;20036;-79
2022/12/27 03:34:41;;;;;;;7.43;1.13;;;;;;;3.20;100.00;101162.59;5088363;28;20107;-79
2022/12/27 03:40:10;;;;;;;6.20;0.87;;;;;;;3.29;100.00;101160.28;5074971;28;20024;-79
2022/12/27 03:48:23;;;;;;;5.72;0.73;;;;;;;3.38;100.00;101173.66;5045731;28;20056;-79
2022/12/27 03:50:55;;;;;;;6.03;1.27;;;;;;;3.30;100.00;101182.91;5075035;28;20036;-79
2022/12/27 03:53:35;;;;;;;3.97;1.35;;;;;;;3.22;100.00;101180.09;5073841;28;20044;-79
2022/12/27 03:56:01;;;;;;;8.85;1.40;;;;;;;3.08;100.00;101184.81;5071301;28;20538;-79
2022/12/27 03:58:27;;;;;;;2.20;0.80;;;;;;;3.07;100.00;101172.63;5074800;28;20487;-79
2022/12/27 04:00:52;;;;;;;11.77;1.17;;;;;;;3.02;100.00;101176.78;5073546;28;20036;-79
2022/12/27 04:03:17;;;;;;;8.43;1.88;;;;;;;2.96;100.00;101176.56;5074699;28;20435;-79
2022/12/27 04:05:43;;;;;;;5.38;0.88;;;;;;;2.86;100.00;101184.91;5082506;28;20029;-79
2022/12/27 04:35:26;;;;;;;2.95;0.50;;;;;;;3.12;97.97;101203.16;5074264;28;20063;-79
2022/12/27 04:37:52;;;;;;;4.15;0.90;;;;;;;3.18;97.29;101201.66;5069395;28;20498;-79
2022/12/27 04:56:41;;;;;;;3.60;0.75;;;;;;;3.43;93.88;101213.84;5067816;28;20044;-79
2022/12/27 05:02:02;;;;;;;1.88;0.50;;;;;;;3.43;93.61;101226.88;5074246;28;20040;-79
2022/12/27 05:04:29;;;;;;;3.25;0.82;;;;;;;3.44;92.96;101231.25;5073847;28;20037;-80
2022/12/27 05:06:56;;;;;;;2.85;0.52;;;;;;;3.47;93.59;101233.97;5055965;28;20040;-79
2022/12/27 05:14:53;;;;;;;3.97;0.88;;;;;;;3.48;92.70;101222.72;5073253;28;20071;-79
2022/12/27 05:17:18;;;;;;;3.47;0.70;;;;;;;3.43;92.13;101232.09;5073230;28;20047;-78
2022/12/27 05:19:44;;;;;;;5.72;1.30;;;;;;;3.43;91.83;101234.72;5070104;28;20051;-79
2022/12/27 05:27:37;;;;;;;2.15;0.43;;;;;;;3.51;91.11;101240.16;5075578;28;20475;-79
2022/12/27 05:30:03;;;;;;;5.28;0.73;;;;;;;3.59;91.67;101240.44;5075909;28;20040;-79
2022/12/27 05:32:28;;;;;;;3.28;0.50;;;;;;;3.61;90.30;101246.59;5076162;28;20032;-79
2022/12/27 05:34:53;;;;;;;2.10;0.50;;;;;;;3.65;90.23;101253.72;5077557;28;20036;-79
2022/12/27 05:37:18;;;;;;;1.27;0.55;;;;;;;3.60;89.89;101247.44;5075867;28;20109;-79
2022/12/27 05:39:44;;;;;;;1.35;0.28;;;;;;;3.72;90.51;101255.66;5076803;28;20407;-79
2022/12/27 05:42:09;;;;;;;2.47;0.50;;;;;;;3.82;90.05;101252.50;5076052;28;20490;-79
2022/12/27 05:44:34;;;;;;;5.82;0.90;;;;;;;3.80;88.84;101255.91;5075642;28;20051;-79
2022/12/27 05:47:00;;;;;;;6.57;1.05;;;;;;;3.82;89.10;101257.75;5076810;28;20117;-79
2022/12/27 05:49:25;;;;;;;2.47;0.52;;;;;;;3.90;89.99;101258.00;5076725;28;20075;-79
2022/12/27 05:51:50;;;;;;;2.53;0.73;;;;;;;3.88;88.98;101257.97;5076867;28;20064;-79
2022/12/27 05:54:16;;;;;;;4.05;0.50;;;;;;;3.88;89.12;101262.31;5077145;28;20031;-79
2022/12/27 05:56:41;;;;;;;4.97;0.70;;;;;;;3.91;88.91;101262.41;5092230;28;20411;-79
2022/12/27 05:59:06;;;;;;;1.63;0.50;;;;;;;3.91;89.83;101265.00;5077114;28;20033;-79
2022/12/27 06:01:32;;;;;;;3.50;0.80;;;;;;;3.85;89.50;101276.16;5076645;28;20036;-79
2022/12/27 06:03:58;;;;;;;2.05;0.50;;;;;;;3.74;89.54;101264.44;5076753;28;20494;-79
2022/12/27 06:06:23;;;;;;;7.03;1.13;;;;;;;3.62;90.14;101272.75;5076806;28;20033;-79
2022/12/27 06:08:49;;;;;;;5.13;0.88;;;;;;;3.53;90.59;101276.78;5076900;28;20044;-79
2022/12/27 06:11:16;;;;;;;3.63;1.25;;;;;;;3.39;91.17;101282.41;5075643;28;20040;-79
2022/12/27 06:13:47;;;;;;;2.50;1.15;;;;;;;3.32;91.82;101285.63;5081194;28;20048;-79
2022/12/27 06:16:13;;;;;;;2.22;0.60;;;;;;;3.20;92.10;101285.22;5086311;28;20061;-79
2022/12/27 06:18:40;;;;;;;5.70;1.13;;;;;;;3.05;92.58;101280.31;5075115;28;20033;-79
2022/12/27 06:21:08;;;;;;;4.28;1.17;;;;;;;2.94;93.24;101272.09;5076034;28;20056;-79
2022/12/27 06:23:35;;;;;;;7.40;1.27;;;;;;;2.79;93.59;101282.84;5081906;28;20082;-79
2022/12/27 06:26:04;;;;;;;3.03;0.60;;;;;;;2.73;94.38;101281.75;5058143;28;20110;-79
2022/12/27 06:28:29;;;;;;;2.35;1.08;;;;;;;2.61;94.66;101288.25;5076109;28;20036;-79
2022/12/27 06:30:58;;;;;;;3.88;0.55;;;;;;;2.63;94.40;101288.31;5074878;28;20097;-79
2022/12/27 06:33:23;;;;;;;6.40;1.17;;;;;;;2.53;95.44;101289.69;5074826;28;20071;-79
2022/12/27 06:35:48;;;;;;;1.80;0.88;;;;;;;2.50;95.62;101286.06;5075451;28;20719;-79
2022/12/27 06:38:14;;;;;;;2.13;0.88;;;;;;;2.41;95.40;101284.91;5076168;28;20491;-79
2022/12/27 06:40:39;;;;;;;2.15;0.60;;;;;;;2.37;95.82;101282.09;5075910;28;20036;-79
2022/12/27 06:43:04;;;;;;;4.68;0.73;;;;;;;2.34;96.19;101282.00;5074725;28;20058;-78
2022/12/27 06:45:30;;;;;;;3.35;0.55;;;;;;;2.28;96.58;101286.94;5075435;28;20025;-79
2022/12/27 06:47:55;;;;;;;4.78;1.10;;;;;;;2.28;96.17;101286.94;5075632;28;20044;-78
2022/12/27 06:50:20;;;;;;;3.13;0.70;;;;;;;2.25;96.73;101294.63;5075378;28;20109;-79
2022/12/27 06:52:46;;;;;;;6.13;1.10;;;;;;;2.19;96.77;101298.75;5075774;28;20090;-79
2022/12/27 06:55:11;;;;;;;4.85;1.10;;;;;;;2.17;97.18;101292.63;5075372;28;20044;-79
2022/12/27 06:57:36;;;;;;;3.75;1.70;;;;;;;2.14;97.17;101297.69;5074766;28;20091;-79
2022/12/27 07:00:03;;;;;;;3.83;0.98;;;;;;;2.14;97.50;101313.31;5075621;28;20033;-79
2022/12/27 07:02:28;;;;;;;5.10;1.20;;;;;;;2.12;97.80;101312.38;5080914;28;20032;-79
2022/12/27 07:04:54;;;;;;;5.22;0.82;;;;;;;2.11;97.77;101318.41;5075062;28;20020;-79
2022/12/27 07:07:19;;;;;;;8.20;1.73;;;;;;;2.07;98.19;101326.94;5075121;28;20040;-79
2022/12/27 07:09:44;;;;;;;5.60;1.58;;;;;;;2.10;98.49;101323.56;5075596;28;20102;-79
2022/12/27 07:12:10;;;;;;;6.07;1.42;;;;;;;2.07;98.77;101328.63;5075320;28;20066;-79
2022/12/27 07:14:35;;;;;;;5.82;1.42;;;;;;;2.09;98.54;101329.59;5074947;28;20040;-79
2022/12/27 07:17:00;;;;;;;3.70;1.20;;;;;;;2.08;98.74;101335.63;5074640;28;20037;-79
2022/12/27 07:19:26;;;;;;;4.15;1.10;;;;;;;2.07;98.62;101342.56;5074923;28;20386;-79
2022/12/27 07:21:51;;;;;;;4.53;1.17;;;;;;;2.06;98.80;101348.56;5074809;28;20048;-79
2022/12/27 07:24:16;;;;;;;3.72;1.20;;;;;;;2.04;99.12;101352.81;5075218;28;20131;-79
2022/12/27 07:26:42;;;;;;;5.97;1.00;;;;;;;2.04;99.70;101358.03;5074380;28;20060;-79
2022/12/27 07:29:08;;;;;;;6.63;1.10;;;;;;;2.09;99.74;101353.91;5075059;28;20483;-78
2022/12/27 07:31:33;;;;;;;5.78;0.93;;;;;;;2.12;99.24;101359.25;5074954;28;20028;-79
2022/12/27 07:34:01;;;;;;;6.85;1.35;;;;;;;2.13;99.38;101355.81;5075033;28;20033;-79
2022/12/27 07:36:31;;;;;;;5.70;1.02;;;;;;;2.13;99.09;101361.03;5074490;28;20070;-79
2022/12/27 07:38:56;;;;;;;3.22;0.98;;;;;;;2.10;99.43;101360.91;5074509;28;20119;-79
2022/12/27 07:41:23;;;;;;;5.95;1.30;;;;;;;2.13;99.45;101366.25;5074777;28;20123;-79
2022/12/27 07:43:48;;;;;;;4.00;1.17;;;;;;;2.18;99.54;101363.84;5074818;28;20044;-79
2022/12/27 07:46:16;;;;;;;4.47;1.00;;;;;;;2.16;99.23;101366.38;5072864;28;20089;-79
2022/12/27 07:48:42;;;;;;;188.90;69.03;;;;;;;2.19;99.31;101373.41;5078094;28;20162;-79
2022/12/27 07:51:08;;;;;;;6.95;1.20;;;;;;;2.24;99.34;101371.00;5074267;28;20040;-79
2022/12/27 07:53:34;;;;;;;6.72;1.30;;;;;;;2.24;99.32;101376.22;5075147;28;20040;-79
2022/12/27 07:56:11;;;;;;;5.82;1.08;;;;;;;2.29;98.82;101386.00;5073174;28;20026;-78
2022/12/27 07:58:43;;;;;;;5.75;0.90;;;;;;;2.37;99.19;101379.38;5074850;28;20041;-79
2022/12/27 08:01:09;;;;;;;9.43;1.10;;;;;;;2.41;98.58;101390.78;5062181;28;20491;-79
2022/12/27 08:03:35;;;;;;;6.10;1.13;;;;;;;2.45;98.51;101392.72;5074443;28;20522;-79
2022/12/27 08:06:01;;;;;;;5.85;1.27;;;;;;;2.47;98.55;101387.56;5074786;28;20037;-79
2022/12/27 08:08:36;;;;;;;3.63;1.10;;;;;;;2.49;98.37;101392.03;5074553;28;20062;-79
2022/12/27 08:11:01;;;;;;;7.00;1.30;;;;;;;2.52;98.57;101392.16;5071136;28;20040;-79
2022/12/27 08:13:27;;;;;;;4.18;0.88;;;;;;;2.57;98.38;101395.81;5074318;28;20082;-79
2022/12/27 08:15:52;;;;;;;8.02;1.35;;;;;;;2.61;98.21;101399.44;5073760;28;20029;-79
2022/12/27 08:18:17;;;;;;;6.18;1.20;;;;;;;2.72;98.01;101397.25;5072655;28;20422;-79
2022/12/27 08:20:43;;;;;;;5.93;1.05;;;;;;;2.78;97.64;101398.38;5073497;28;20553;-79
2022/12/27 08:23:08;;;;;;;4.82;1.23;;;;;;;2.78;97.55;101402.72;5071315;28;20032;-79
2022/12/27 08:25:33;;;;;;;3.72;1.10;;;;;;;2.88;97.68;101398.72;5074169;28;20060;-79
2022/12/27 08:28:07;;;;;;;4.97;1.15;;;;;;;2.93;97.37;101405.91;5074980;28;20037;-79
2022/12/27 08:30:33;;;;;;;7.50;1.20;;;;;;;2.94;97.43;101397.25;5074027;28;20040;-79
2022/12/27 08:33:00;;;;;;;4.72;1.20;;;;;;;3.04;97.11;101403.72;5081314;28;20086;-79
2022/12/27 08:35:25;;;;;;;5.88;1.13;;;;;;;3.10;96.48;101392.66;5069006;28;20035;-79
2022/12/27 08:37:51;;;;;;;3.30;1.25;;;;;;;3.23;95.80;101379.22;5074052;28;20040;-78
2022/12/27 08:40:16;;;;;;;6.20;1.17;;;;;;;3.40;95.15;101372.88;5089411;28;20056;-79
2022/12/27 08:42:41;;;;;;;4.28;1.17;;;;;;;3.60;93.95;101368.41;5074519;28;20024;-79
2022/12/27 08:45:07;;;;;;;6.72;0.95;;;;;;;3.78;93.72;101356.84;5074330;28;20090;-79
2022/12/27 08:47:32;;;;;;;3.40;0.90;;;;;;;3.90;93.59;101358.16;5074163;28;20094;-79
2022/12/27 08:49:58;;;;;;;6.07;1.05;;;;;;;3.98;92.44;101362.72;5074744;28;20422;-79
2022/12/27 08:52:24;;;;;;;4.45;1.25;;;;;;;4.23;92.61;101374.88;5074184;28;20510;-79
2022/12/27 08:54:49;;;;;;;6.30;1.40;;;;;;;4.34;92.11;101363.94;5074445;28;20037;-79
2022/12/27 08:57:15;;;;;;;4.60;1.23;;;;;;;4.47;91.64;101374.78;5073869;28;20047;-79
2022/12/27 08:59:40;;;;;;;6.28;1.17;;;;;;;4.56;90.89;101369.88;5074846;28;20037;-79
2022/12/27 09:02:05;;;;;;;5.32;1.13;;;;;;;4.66;90.34;101382.38;5077117;28;20033;-79
2022/12/27 09:04:31;;;;;;;6.50;1.38;;;;;;;4.70;90.01;101373.78;5074542;28;20039;-78
2022/12/27 09:06:56;;;;;;;6.03;1.10;;;;;;;4.75;89.68;101376.56;5077736;28;20036;-79
2022/12/27 09:09:21;;;;;;;8.25;1.30;;;;;;;4.88;88.60;101383.94;5093061;28;20160;-79
2022/12/27 09:11:47;;;;;;;6.57;1.40;;;;;;;4.81;89.11;101388.09;5077557;28;20041;-79
2022/12/27 09:14:12;;;;;;;4.72;1.52;;;;;;;4.87;89.14;101376.03;5077820;28;20032;-78
2022/12/27 09:16:38;;;;;;;6.30;1.40;;;;;;;4.98;88.62;101369.44;5077077;28;20048;-79
2022/12/27 09:19:03;;;;;;;5.53;1.45;;;;;;;5.03;88.20;101373.03;5077934;28;20036;-79
2022/12/27 09:21:30;;;;;;;5.25;1.52;;;;;;;5.18;87.53;101378.72;5077794;28;20036;-79
2022/12/27 09:23:56;;;;;;;6.35;1.33;;;;;;;5.32;87.23;101380.84;5076371;28;20098;-79
2022/12/27 09:26:27;;;;;;;11.88;1.60;;;;;;;5.42;85.72;101390.75;5077437;28;20041;-79
2022/12/27 09:28:54;;;;;;;4.83;1.13;;;;;;;5.53;85.91;101388.44;5077877;28;20029;-79
2022/12/27 09:31:20;;;;;;;3.88;1.23;;;;;;;5.67;85.48;101380.13;5077437;28;20305;-79
2022/12/27 09:33:46;;;;;;;5.70;1.20;;;;;;;5.64;84.26;101387.03;5077307;28;20103;-79
2022/12/27 09:36:14;;;;;;;5.10;1.10;;;;;;;5.79;84.67;101376.97;5077289;28;20079;-79
2022/12/27 09:38:41;;;;;;;3.45;1.10;;;;;;;5.90;85.25;101392.97;5077053;28;20057;-79
2022/12/27 09:41:48;;;;;;;4.93;1.40;;;;;;;5.87;83.38;101382.41;5077427;28;20047;-79
2022/12/27 09:44:21;;;;;;;4.57;1.10;;;;;;;5.77;83.27;101401.34;5075891;28;20060;-79
2022/12/27 09:46:59;;;;;;;3.78;0.93;;;;;;;5.84;83.29;101390.16;5076654;28;20051;-79
2022/12/27 09:49:45;;;;;;;7.15;1.30;;;;;;;5.86;83.71;101388.47;5074690;28;20518;-79
2022/12/27 09:52:17;;;;;;;4.72;1.10;;;;;;;5.78;84.19;101387.38;5073777;28;20078;-79
2022/12/27 09:54:43;;;;;;;4.55;1.20;;;;;;;5.69;83.90;101390.66;5089079;23;20016;-77
2022/12/27 09:57:40;;;;;;;7.55;1.45;;;;;;;5.69;83.71;101404.63;5072877;28;20033;-77
2022/12/27 10:00:14;;;;;;;110.10;62.47;;;;;;;5.62;83.45;101397.44;5069651;28;20116;-77
2022/12/27 10:02:43;;;;;;;1999.90;999.90;;;;;;;5.60;84.21;101409.59;5073477;28;20066;-77
2022/12/27 10:05:16;;;;;;;4.88;2.22;;;;;;;5.67;83.13;101401.06;5073236;28;20119;-77
2022/12/27 10:07:58;;;;;;;4.15;0.90;;;;;;;5.73;83.06;101408.22;5070395;28;20042;-77
2022/12/27 10:10:38;;;;;;;2.45;0.85;;;;;;;5.86;83.90;101414.69;5072646;28;20497;-77
2022/12/27 10:13:12;;;;;;;4.28;1.00;;;;;;;5.94;83.03;101405.31;5073372;28;20409;-77
2022/12/27 10:15:47;;;;;;;3.85;1.00;;;;;;;5.93;82.77;101395.66;5068754;28;20029;-77
2022/12/27 10:18:27;;;;;;;2.65;1.00;;;;;;;5.76;82.19;101399.56;5071533;28;20098;-77
2022/12/27 10:21:18;;;;;;;3.35;0.95;;;;;;;5.58;83.80;101400.84;5068016;28;20410;-77
2022/12/27 10:23:51;;;;;;;2.67;0.80;;;;;;;5.54;83.96;101408.56;5067158;28;20060;-77
2022/12/27 10:26:18;;;;;;;6.70;1.10;;;;;;;5.48;84.15;101398.81;5072726;28;20047;-77
2022/12/27 10:28:45;;;;;;;2.88;0.90;;;;;;;5.49;84.58;101398.81;5073025;28;20387;-77
2022/12/27 10:31:15;;;;;;;3.70;1.10;;;;;;;5.53;84.83;101405.06;5071634;28;20032;-77
2022/12/27 10:33:43;;;;;;;5.25;1.45;;;;;;;5.55;84.44;101403.34;5072939;28;20035;-77
2022/12/27 10:36:13;;;;;;;5.22;1.38;;;;;;;5.59;84.25;101402.59;5072217;28;20029;-77
2022/12/27 10:38:38;;;;;;;5.45;1.48;;;;;;;5.67;85.83;101393.22;5072655;28;20056;-77
2022/12/27 10:41:23;;;;;;;5.10;1.00;;;;;;;5.83;84.14;101404.13;5072718;28;20032;-77
2022/12/27 10:43:51;;;;;;;3.83;1.00;;;;;;;6.01;83.45;101402.03;5072631;28;20111;-77
2022/12/27 10:46:25;;;;;;;5.13;1.33;;;;;;;6.22;83.13;101395.56;5072293;28;20505;-77
2022/12/27 10:48:56;;;;;;;3.67;1.25;;;;;;;6.33;82.38;101401.97;5072365;28;20044;-77
2022/12/27 10:51:23;;;;;;;5.90;1.25;;;;;;;6.32;81.91;101393.22;5072420;28;20042;-77
2022/12/27 10:53:49;;;;;;;5.22;0.95;;;;;;;6.32;81.79;101408.06;5072481;28;20479;-77
2022/12/27 10:56:24;;;;;;;5.07;1.10;;;;;;;6.26;82.69;101392.16;5071772;28;20169;-77
2022/12/27 10:58:53;;;;;;;5.78;1.15;;;;;;;6.05;83.87;101395.13;5071075;28;20033;-77
2022/12/27 11:01:24;;;;;;;3.50;1.10;;;;;;;5.97;83.18;101402.78;5070853;28;20043;-77
2022/12/27 11:04:13;;;;;;;4.80;1.00;;;;;;;5.92;83.79;101405.25;5072203;28;20056;-77
2022/12/27 11:06:39;;;;;;;3.30;0.90;;;;;;;6.09;84.30;101404.84;5069966;28;20036;-77
2022/12/27 11:09:36;;;;;;;3.67;0.80;;;;;;;6.27;82.50;101405.31;5072060;28;20037;-77
2022/12/27 11:12:13;;;;;;;3.70;1.20;;;;;;;6.52;83.46;101411.16;5026698;28;20044;-77
2022/12/27 11:14:39;;;;;;;3.95;0.95;;;;;;;6.57;81.89;101414.78;5071833;28;20067;-77
2022/12/27 11:17:12;;;;;;;5.60;1.67;;;;;;;6.84;81.96;101411.94;5071958;28;20056;-77
2022/12/27 11:19:45;;;;;;;4.88;1.02;;;;;;;6.88;81.88;101416.41;5068724;28;20040;-77
2022/12/27 11:22:10;;;;;;;4.03;0.95;;;;;;;6.92;80.44;101420.88;5071009;28;20037;-77
2022/12/27 11:24:36;;;;;;;2.83;0.90;;;;;;;7.05;81.57;101408.00;5071726;28;20486;-77
2022/12/27 11:27:02;;;;;;;4.57;1.00;;;;;;;7.20;80.12;101414.50;5071543;28;20041;-77
2022/12/27 11:29:30;;;;;;;2.78;1.20;;;;;;;7.17;80.39;101424.03;5071677;28;20029;-77
2022/12/27 11:31:56;;;;;;;5.03;1.00;;;;;;;7.00;80.19;101423.69;5071746;28;20093;-77
2022/12/27 11:34:36;;;;;;;4.93;1.33;;;;;;;6.85;80.48;101426.81;5071470;28;20040;-77
2022/12/27 11:37:03;;;;;;;4.50;1.55;;;;;;;6.87;80.74;101419.88;5066762;28;20028;-77
2022/12/27 11:39:46;;;;;;;4.35;1.23;;;;;;;6.92;80.94;101436.63;5071283;28;20032;-77
2022/12/27 11:42:37;;;;;;;4.85;1.38;;;;;;;6.94;81.21;101416.56;5068055;28;20104;-77
2022/12/27 11:45:11;;;;;;;3.78;1.20;;;;;;;6.86;82.14;101417.22;5068126;28;20455;-77
2022/12/27 11:47:52;;;;;;;6.70;1.65;;;;;;;6.85;81.45;101418.06;5071304;28;20735;-77
2022/12/27 11:50:26;;;;;;;4.90;1.30;;;;;;;6.99;81.91;101414.91;5068738;28;20043;-77
2022/12/27 11:53:23;;;;;;;5.93;0.98;;;;;;;6.99;81.52;101414.91;5071415;28;20177;-77
2022/12/27 11:56:11;;;;;;;7.38;1.25;;;;;;;6.83;80.38;101419.78;5015158;28;20053;-77
2022/12/27 11:58:54;;;;;;;4.05;1.10;;;;;;;6.76;81.47;101416.13;5041856;28;20033;-77
2022/12/27 12:01:38;;;;;;;3.80;0.82;;;;;;;6.80;82.11;101399.59;5070510;28;20040;-77
2022/12/27 12:04:26;;;;;;;3.28;0.80;;;;;;;6.92;80.33;101407.75;5069754;28;20040;-77
2022/12/27 12:07:07;;;;;;;4.03;1.05;;;;;;;7.00;79.84;101400.06;5069695;28;20528;-77
2022/12/27 12:09:58;;;;;;;2.58;0.98;;;;;;;6.96;80.71;101408.69;5068270;28;20039;-77
2022/12/27 12:12:55;;;;;;;3.80;1.23;;;;;;;6.96;80.24;101411.31;5062874;28;20137;-77
2022/12/27 12:15:58;;;;;;;3.15;0.77;;;;;;;6.83;81.95;101411.91;5069347;28;20093;-77
2022/12/27 12:18:34;;;;;;;5.38;0.90;;;;;;;6.75;80.74;101424.84;5071015;28;20547;-77
2022/12/27 12:21:21;;;;;;;3.67;1.25;;;;;;;6.71;81.27;101415.13;5071048;28;20124;-77
2022/12/27 12:24:15;;;;;;;4.72;1.20;;;;;;;6.67;81.40;101424.66;5069314;28;20032;-77
2022/12/27 12:27:15;;;;;;;3.00;0.98;;;;;;;6.72;81.59;101419.53;5064643;28;20063;-77
2022/12/27 12:30:21;;;;;;;3.15;0.70;;;;;;;6.86;80.32;101436.47;5067366;28;20044;-77
2022/12/27 12:33:04;;;;;;;4.45;1.20;;;;;;;7.02;79.77;101430.75;5071007;28;20093;-77
2022/12/27 12:35:47;;;;;;;5.85;1.33;;;;;;;7.20;79.95;101431.97;5088168;28;20384;-77
2022/12/27 12:38:26;;;;;;;3.33;0.85;;;;;;;7.39;78.43;101430.66;5071988;28;20040;-77
2022/12/27 12:41:24;;;;;;;3.38;0.98;;;;;;;7.62;79.13;101431.13;5075193;28;20032;-77
2022/12/27 12:44:17;;;;;;;2.95;0.93;;;;;;;7.67;77.93;101437.34;5071769;28;20499;-77
2022/12/27 12:47:04;;;;;;;3.45;1.35;;;;;;;7.71;77.54;101439.19;5071834;28;20097;-77
2022/12/27 12:49:51;;;;;;;1.88;0.82;;;;;;;7.45;78.49;101439.53;5071627;28;20028;-77
2022/12/27 12:52:45;;;;;;;4.30;1.00;;;;;;;7.23;79.71;101446.09;5071284;28;20072;-77
2022/12/27 12:55:24;;;;;;;2.53;0.93;;;;;;;7.16;80.06;101446.78;5069810;28;20408;-77
2022/12/27 12:58:06;;;;;;;3.97;0.80;;;;;;;7.18;80.53;101452.97;5071600;28;20064;-77
2022/12/27 13:00:59;;;;;;;4.30;0.90;;;;;;;7.14;80.41;101444.97;5074614;28;20441;-77
2022/12/27 13:04:00;;;;;;;3.92;1.02;;;;;;;7.15;79.62;101447.66;5074065;28;20410;-77
2022/12/27 13:06:50;;;;;;;5.57;1.30;;;;;;;7.26;79.12;101453.16;5070670;28;20517;-77
2022/12/27 13:09:34;;;;;;;4.05;1.10;;;;;;;7.19;80.01;101448.59;5071437;28;20106;-77
2022/12/27 13:12:27;;;;;;;6.80;1.85;;;;;;;6.92;81.06;101460.25;5070564;28;20033;-77
2022/12/27 13:14:53;;;;;;;;;;;;;;;6.78;82.15;101444.16;5071355;28;20071;-77
2022/12/27 13:17:44;;;;;;;4.78;1.58;;;;;;;6.73;82.71;101452.75;5074047;28;19916;-77
2022/12/27 13:20:39;;;;;;;2.70;1.00;;;;;;;6.69;82.60;101456.19;5072115;28;20452;-77
2022/12/27 13:23:31;;;;;;;3.78;1.10;;;;;;;6.67;83.09;101450.00;5072514;28;20074;-77
2022/12/27 13:26:16;;;;;;;4.30;1.30;;;;;;;6.53;84.06;101454.91;5072731;28;20410;-77
2022/12/27 13:29:00;;;;;;;6.93;3.53;;;;;;;6.54;84.04;101452.31;5087979;28;20036;-77
2022/12/27 13:31:54;;;;;;;6.30;5.88;;;;;;;6.42;84.24;101459.91;5073934;28;20140;-77
2022/12/27 13:34:32;;;;;;;1.95;0.73;;;;;;;6.35;84.51;101464.06;5072013;28;20048;-77
2022/12/27 13:37:10;;;;;;;1.83;0.70;;;;;;;6.25;85.40;101469.91;5070277;28;20119;-77
2022/12/27 13:40:09;;;;;;;1.48;0.73;;;;;;;6.20;85.50;101465.41;5073681;28;20041;-77
2022/12/27 13:42:49;;;;;;;1.92;0.80;;;;;;;6.22;85.64;101461.09;5070172;28;20086;-77
2022/12/27 13:45:55;;;;;;;1.88;0.70;;;;;;;6.13;86.83;101459.09;5072709;28;20032;-77